Time;durP1;ratioP1;P1;durP2;ratioP2;P2;SDS_P1;SDS_P2;PMS_P1;PMS_P2;Temp;Humidity;BMP_temperature;BMP_pressure;BME280_temperature;BME280_humidity;BME280_pressure;Samples;Min_cycle;Max_cycle;Signal;HPM_P1;HPM_P2
2021/10/13 00:01:36;;;;;;;5.40;4.90;;;10.10;97.40;;;;;;5021577;28;20221;-69
2021/10/13 00:04:09;;;;;;;3.10;2.58;;;10.10;97.50;;;;;;5019644;28;20229;-69
2021/10/13 00:06:40;;;;;;;3.83;2.40;;;10.10;97.40;;;;;;5013812;28;20226;-69
2021/10/13 00:09:07;;;;;;;2.97;1.73;;;10.10;97.60;;;;;;5026800;28;20241;-69
2021/10/13 00:11:35;;;;;;;6.28;1.90;;;10.00;97.60;;;;;;5024168;28;20221;-69
2021/10/13 00:14:02;;;;;;;1.85;1.52;;;10.00;97.50;;;;;;5016565;28;20217;-69
2021/10/13 00:16:30;;;;;;;1.30;1.20;;;10.00;97.60;;;;;;5024035;28;20668;-69
2021/10/13 00:18:57;;;;;;;2.45;1.42;;;10.00;97.70;;;;;;5013513;28;20315;-70
2021/10/13 00:21:24;;;;;;;1.20;1.10;;;10.00;97.80;;;;;;5024092;28;20217;-69
2021/10/13 00:23:53;;;;;;;1.40;1.10;;;10.00;97.90;;;;;;5028531;28;20226;-69
2021/10/13 00:26:20;;;;;;;1.45;1.20;;;10.00;97.90;;;;;;5013878;28;20754;-69
2021/10/13 00:28:47;;;;;;;2.67;1.30;;;9.90;98.50;;;;;;5026206;28;20253;-69
2021/10/13 00:31:14;;;;;;;2.67;1.55;;;9.90;98.60;;;;;;5013809;28;20580;-69
2021/10/13 00:33:41;;;;;;;2.35;1.30;;;9.90;98.60;;;;;;5017005;28;20233;-69
2021/10/13 00:36:08;;;;;;;5.43;1.40;;;9.90;98.60;;;;;;5023009;28;20229;-69
2021/10/13 00:38:35;;;;;;;3.58;1.60;;;9.90;98.70;;;;;;5012612;28;20222;-69
2021/10/13 00:41:03;;;;;;;2.67;1.40;;;9.90;98.70;;;;;;5024058;28;20703;-69
2021/10/13 00:43:30;;;;;;;3.10;1.77;;;9.90;98.80;;;;;;5020678;28;20233;-69
2021/10/13 00:45:57;;;;;;;1.92;1.50;;;9.90;98.70;;;;;;5013125;28;20558;-69
2021/10/13 00:48:24;;;;;;;2.13;1.63;;;9.90;98.70;;;;;;5027540;28;20222;-69
2021/10/13 00:50:51;;;;;;;2.85;1.85;;;9.90;98.70;;;;;;5025827;28;20226;-68
2021/10/13 00:53:18;;;;;;;1.95;1.80;;;9.90;98.70;;;;;;5027376;28;20227;-68
2021/10/13 00:55:45;;;;;;;1.77;1.52;;;9.90;98.70;;;;;;5025184;28;20229;-68
2021/10/13 00:58:13;;;;;;;3.15;1.50;;;9.90;99.20;;;;;;5026536;28;20224;-68
2021/10/13 01:00:44;;;;;;;4.93;1.75;;;9.80;98.80;;;;;;5019714;28;20687;-68
2021/10/13 01:03:19;;;;;;;2.17;1.50;;;9.90;99.00;;;;;;5026138;28;20598;-69
2021/10/13 01:06:00;;;;;;;3.42;1.65;;;9.90;98.90;;;;;;5012785;28;20223;-69
2021/10/13 01:08:36;;;;;;;3.45;2.22;;;9.90;98.90;;;;;;5022837;28;20239;-69
2021/10/13 01:11:17;;;;;;;2.17;1.75;;;9.90;98.90;;;;;;5026150;28;20859;-69
2021/10/13 01:13:59;;;;;;;3.13;2.00;;;9.90;99.00;;;;;;5013159;28;20221;-69
2021/10/13 01:16:34;;;;;;;1.83;1.65;;;9.90;98.90;;;;;;5023935;28;20222;-69
2021/10/13 01:19:05;;;;;;;2.10;1.90;;;10.00;98.30;;;;;;5012488;28;20758;-69
2021/10/13 01:21:49;;;;;;;2.90;1.65;;;9.90;98.90;;;;;;5023825;28;20687;-69
2021/10/13 01:24:28;;;;;;;3.78;2.40;;;9.90;99.00;;;;;;5019920;28;20220;-69
2021/10/13 01:27:10;;;;;;;7.88;2.30;;;10.00;98.60;;;;;;5022739;28;20213;-69
2021/10/13 01:29:41;;;;;;;2.97;2.30;;;9.90;99.00;;;;;;5023395;28;20221;-68
2021/10/13 01:32:15;;;;;;;2.92;2.50;;;9.90;99.00;;;;;;5011272;28;20229;-68
2021/10/13 01:34:46;;;;;;;1.73;1.40;;;9.90;98.90;;;;;;5004904;28;20230;-69
2021/10/13 01:37:18;;;;;;;3.05;2.03;;;9.90;99.10;;;;;;4993549;28;20234;-69
2021/10/13 01:39:47;;;;;;;1.80;1.70;;;9.90;99.10;;;;;;4992986;28;20254;-69
2021/10/13 01:42:16;;;;;;;7.10;2.45;;;9.90;99.30;;;;;;4998069;28;20213;-69
2021/10/13 01:44:48;;;;;;;2.28;2.08;;;9.80;99.30;;;;;;5011724;28;20280;-69
2021/10/13 01:47:18;;;;;;;3.53;2.55;;;9.80;99.30;;;;;;4999348;28;20296;-69
2021/10/13 01:49:48;;;;;;;2.10;1.90;;;9.80;99.30;;;;;;5007771;28;20226;-69
2021/10/13 01:52:16;;;;;;;4.78;2.53;;;9.80;99.40;;;;;;5016450;28;20228;-69
2021/10/13 01:54:44;;;;;;;2.22;1.83;;;9.70;99.40;;;;;;5016823;28;20676;-69
2021/10/13 01:57:13;;;;;;;1.92;1.75;;;9.70;99.40;;;;;;5016373;28;20218;-69
2021/10/13 01:59:42;;;;;;;1.90;1.70;;;9.70;99.40;;;;;;5016623;28;20232;-69
2021/10/13 02:02:12;;;;;;;1.60;1.50;;;9.70;99.60;;;;;;5016144;28;20233;-69
2021/10/13 02:04:41;;;;;;;2.22;1.40;;;9.70;99.70;;;;;;5016962;28;20247;-69
2021/10/13 02:07:09;;;;;;;2.88;1.60;;;9.70;99.80;;;;;;5016504;28;20229;-69
2021/10/13 02:09:37;;;;;;;2.15;1.55;;;9.70;99.80;;;;;;5016453;28;20226;-69
2021/10/13 02:12:05;;;;;;;3.92;1.88;;;9.60;99.80;;;;;;5016217;28;20707;-69
2021/10/13 02:14:37;;;;;;;3.03;1.98;;;9.60;99.80;;;;;;5016429;28;20226;-70
2021/10/13 02:17:05;;;;;;;1.80;1.50;;;9.60;99.80;;;;;;5015976;28;20230;-69
2021/10/13 02:19:35;;;;;;;4.05;1.42;;;9.50;99.90;;;;;;5016525;28;20566;-69
2021/10/13 02:22:04;;;;;;;1.77;1.65;;;9.50;99.90;;;;;;5016042;28;20712;-69
2021/10/13 02:24:34;;;;;;;3.83;1.77;;;9.50;99.90;;;;;;5016243;28;20688;-69
2021/10/13 02:27:06;;;;;;;2.78;1.95;;;9.40;99.90;;;;;;5015789;28;20230;-69
2021/10/13 02:29:33;;;;;;;2.97;1.80;;;9.40;99.90;;;;;;5016177;28;20237;-69
2021/10/13 02:32:00;;;;;;;2.92;2.03;;;9.40;99.90;;;;;;5015777;28;20240;-69
2021/10/13 02:34:27;;;;;;;3.17;1.63;;;9.40;99.90;;;;;;5016113;28;20677;-69
2021/10/13 02:36:55;;;;;;;2.15;1.95;;;9.40;99.90;;;;;;5015753;28;20226;-68
2021/10/13 02:39:23;;;;;;;3.30;1.85;;;9.30;99.90;;;;;;5015831;28;20226;-69
2021/10/13 02:41:50;;;;;;;2.22;1.58;;;9.30;99.90;;;;;;5015811;28;20233;-69
2021/10/13 02:44:17;;;;;;;1.63;1.52;;;9.30;99.90;;;;;;5015728;28;20221;-69
2021/10/13 02:46:49;;;;;;;2.88;1.95;;;9.40;99.90;;;;;;5000583;28;20684;-69
2021/10/13 02:49:36;;;;;;;5.00;1.52;;;9.40;99.90;;;;;;5004076;28;20222;-69
2021/10/13 02:52:13;;;;;;;3.35;1.95;;;9.40;99.90;;;;;;5015400;28;20719;-69
2021/10/13 02:54:46;;;;;;;1.92;1.73;;;9.30;99.90;;;;;;5015795;28;20221;-69
2021/10/13 02:57:14;;;;;;;1.80;1.65;;;9.40;99.90;;;;;;5015432;28;20226;-68
2021/10/13 02:59:43;;;;;;;1.88;1.65;;;9.40;99.90;;;;;;5015422;28;20233;-68
2021/10/13 03:02:14;;;;;;;2.00;1.65;;;9.40;99.90;;;;;;5014519;28;20232;-68
2021/10/13 03:04:50;;;;;;;1.95;1.45;;;9.30;99.90;;;;;;5015834;28;20233;-68
2021/10/13 03:07:22;;;;;;;2.13;1.73;;;9.40;99.90;;;;;;5015145;28;20226;-68
2021/10/13 03:09:53;;;;;;;2.88;2.22;;;9.40;99.90;;;;;;5015305;28;20226;-68
2021/10/13 03:12:22;;;;;;;1.88;1.77;;;9.40;99.90;;;;;;5014979;28;20222;-68
2021/10/13 03:14:52;;;;;;;3.63;1.90;;;9.40;99.90;;;;;;5015532;28;20226;-68
2021/10/13 03:17:20;;;;;;;2.80;1.88;;;9.40;99.90;;;;;;5014933;28;20559;-69
2021/10/13 03:19:48;;;;;;;2.60;2.40;;;9.40;99.90;;;;;;5015278;28;20284;-69
2021/10/13 03:22:16;;;;;;;2.20;2.00;;;9.30;99.90;;;;;;5015049;28;20640;-69
2021/10/13 03:24:44;;;;;;;2.65;1.80;;;9.30;99.90;;;;;;5015134;28;20703;-69
2021/10/13 03:27:11;;;;;;;4.70;2.00;;;9.30;99.90;;;;;;5014916;28;20225;-69
2021/10/13 03:29:40;;;;;;;3.55;1.70;;;9.30;99.90;;;;;;5015099;28;20233;-68
2021/10/13 03:32:08;;;;;;;2.17;1.60;;;9.30;99.90;;;;;;5014589;28;20225;-69
2021/10/13 03:34:35;;;;;;;2.15;1.77;;;9.20;99.90;;;;;;5015184;28;20542;-69
2021/10/13 03:37:02;;;;;;;5.57;2.55;;;9.20;99.90;;;;;;5014626;28;20230;-68
2021/10/13 03:39:29;;;;;;;2.92;2.00;;;9.20;99.90;;;;;;5014883;28;20233;-69
2021/10/13 03:42:01;;;;;;;3.53;2.15;;;9.20;99.90;;;;;;5012053;28;20231;-69
2021/10/13 03:44:29;;;;;;;3.67;2.50;;;9.20;99.90;;;;;;5007770;28;20288;-69
2021/10/13 03:46:58;;;;;;;5.13;2.60;;;9.10;99.90;;;;;;4997629;28;20231;-69
2021/10/13 03:49:25;;;;;;;3.47;2.35;;;9.10;99.90;;;;;;5004070;28;20237;-69
2021/10/13 03:51:52;;;;;;;4.85;2.78;;;9.10;99.90;;;;;;5014766;28;20244;-69
2021/10/13 03:54:19;;;;;;;3.50;3.20;;;9.10;99.90;;;;;;5014042;28;20688;-69
2021/10/13 03:56:46;;;;;;;3.92;3.53;;;9.10;99.90;;;;;;5014535;28;20222;-68
2021/10/13 03:59:14;;;;;;;4.63;3.83;;;9.10;99.90;;;;;;5014058;28;20245;-69
2021/10/13 04:01:41;;;;;;;5.18;4.00;;;9.10;99.90;;;;;;5014559;28;20234;-68
2021/10/13 04:04:08;;;;;;;3.45;3.15;;;9.00;99.90;;;;;;5013882;28;20226;-69
2021/10/13 04:06:35;;;;;;;3.80;3.20;;;9.00;99.90;;;;;;5014538;28;20228;-69
2021/10/13 04:09:02;;;;;;;4.72;2.65;;;9.00;99.90;;;;;;5014173;28;20248;-69
2021/10/13 04:11:29;;;;;;;4.85;3.25;;;9.00;99.90;;;;;;5014169;28;20562;-68
2021/10/13 04:13:56;;;;;;;3.72;3.42;;;8.90;99.90;;;;;;5013289;28;20226;-68
2021/10/13 04:16:24;;;;;;;3.10;2.60;;;8.90;99.90;;;;;;5013914;28;20234;-69
2021/10/13 04:18:51;;;;;;;4.90;2.95;;;8.90;99.90;;;;;;5013983;28;20245;-69
2021/10/13 04:21:18;;;;;;;3.30;2.92;;;8.90;99.90;;;;;;5013724;28;20232;-69
2021/10/13 04:23:45;;;;;;;3.95;2.83;;;9.00;99.90;;;;;;5013966;28;20229;-69
2021/10/13 04:26:12;;;;;;;6.90;4.25;;;8.90;99.90;;;;;;5012545;28;20256;-68
2021/10/13 04:28:39;;;;;;;6.97;4.20;;;8.90;99.90;;;;;;5014029;28;20606;-68
2021/10/13 04:31:05;;;;;;;3.53;2.90;;;9.00;99.90;;;;;;5013935;28;20696;-68
2021/10/13 04:33:34;;;;;;;3.95;2.80;;;9.00;99.90;;;;;;5013659;28;20214;-68
2021/10/13 04:36:01;;;;;;;2.60;2.08;;;9.00;99.90;;;;;;5014131;28;20234;-68
2021/10/13 04:38:28;;;;;;;2.65;2.45;;;9.10;99.90;;;;;;5013225;28;20688;-66
2021/10/13 04:40:55;;;;;;;2.63;2.42;;;9.10;99.90;;;;;;5013910;28;20226;-66
2021/10/13 04:43:21;;;;;;;2.92;2.58;;;9.10;99.90;;;;;;5013206;28;20221;-66
2021/10/13 04:45:48;;;;;;;4.88;2.25;;;9.10;99.90;;;;;;5013879;28;20680;-66
2021/10/13 04:48:15;;;;;;;2.30;2.10;;;9.10;99.90;;;;;;5012806;28;20225;-66
2021/10/13 04:50:44;;;;;;;2.92;2.15;;;9.10;99.90;;;;;;4998641;28;20696;-66
2021/10/13 04:53:10;;;;;;;2.38;2.10;;;9.10;99.90;;;;;;5011460;28;20226;-67
2021/10/13 04:55:37;;;;;;;3.25;2.95;;;9.20;99.90;;;;;;5004028;28;20229;-67
2021/10/13 04:58:04;;;;;;;2.47;2.30;;;9.20;99.90;;;;;;5001534;28;20230;-67
2021/10/13 05:00:31;;;;;;;2.67;2.47;;;9.20;99.90;;;;;;5000577;28;20221;-67
2021/10/13 05:02:58;;;;;;;3.10;2.72;;;9.20;99.90;;;;;;5013289;28;20229;-67
2021/10/13 05:05:25;;;;;;;3.53;2.90;;;9.20;99.90;;;;;;5013058;28;20236;-67
2021/10/13 05:07:53;;;;;;;2.70;2.50;;;9.20;99.90;;;;;;5013510;28;20237;-67
2021/10/13 05:10:20;;;;;;;2.45;2.03;;;9.20;99.90;;;;;;5012675;28;20241;-67
2021/10/13 05:12:47;;;;;;;3.08;2.60;;;9.20;99.90;;;;;;5013383;28;20249;-67
2021/10/13 05:15:14;;;;;;;5.22;4.45;;;9.20;99.90;;;;;;5012967;28;20229;-67
2021/10/13 05:17:41;;;;;;;3.70;3.40;;;9.10;99.90;;;;;;5013352;28;20230;-67
2021/10/13 05:20:10;;;;;;;3.33;3.03;;;9.20;99.90;;;;;;5013103;28;20625;-67
2021/10/13 05:22:37;;;;;;;3.08;2.78;;;9.10;99.90;;;;;;5032707;28;20283;-67
2021/10/13 05:25:06;;;;;;;4.35;3.50;;;9.10;99.90;;;;;;5032246;28;20692;-67
2021/10/13 05:27:33;;;;;;;4.13;3.63;;;9.10;99.90;;;;;;5032386;28;20217;-67
2021/10/13 05:30:00;;;;;;;3.90;3.60;;;9.10;99.90;;;;;;5032688;28;20240;-67
2021/10/13 05:32:27;;;;;;;3.97;3.63;;;9.10;99.90;;;;;;5032144;28;20240;-67
2021/10/13 05:34:54;;;;;;;4.05;3.75;;;9.10;99.90;;;;;;5032466;28;20229;-67
2021/10/13 05:37:21;;;;;;;4.05;3.65;;;9.00;99.90;;;;;;5032395;28;20225;-67
2021/10/13 05:39:48;;;;;;;4.43;4.03;;;9.00;99.90;;;;;;5032541;28;20233;-68
2021/10/13 05:42:17;;;;;;;4.00;3.70;;;9.00;99.90;;;;;;5026856;28;20656;-68
2021/10/13 05:44:44;;;;;;;4.40;4.00;;;9.00;99.90;;;;;;5027751;28;20221;-68
2021/10/13 05:47:11;;;;;;;4.25;3.70;;;9.00;99.90;;;;;;5032588;28;20221;-68
2021/10/13 05:49:38;;;;;;;4.25;3.83;;;9.00;99.90;;;;;;5032169;28;20236;-69
2021/10/13 05:52:06;;;;;;;5.97;5.45;;;9.10;99.90;;;;;;5032358;28;20225;-68
2021/10/13 05:54:33;;;;;;;7.47;5.53;;;9.10;99.90;;;;;;5031883;28;20232;-68
2021/10/13 05:57:00;;;;;;;5.13;4.72;;;9.10;99.90;;;;;;5032499;28;20232;-68
2021/10/13 05:59:28;;;;;;;5.07;4.50;;;9.20;99.90;;;;;;5031744;28;20592;-69
2021/10/13 06:01:55;;;;;;;7.03;5.50;;;9.20;99.90;;;;;;5032282;28;20565;-68
2021/10/13 06:04:22;;;;;;;7.40;4.30;;;9.20;99.90;;;;;;5031992;28;20236;-68
2021/10/13 06:06:49;;;;;;;5.47;4.97;;;9.20;99.90;;;;;;5032365;28;20232;-68
2021/10/13 06:09:16;;;;;;;5.53;4.50;;;9.30;99.90;;;;;;5031779;28;20236;-68
2021/10/13 06:11:43;;;;;;;5.40;4.90;;;9.30;99.90;;;;;;5032478;28;20572;-68
2021/10/13 06:14:10;;;;;;;5.93;4.80;;;9.40;99.90;;;;;;5032284;28;20244;-68
2021/10/13 06:16:38;;;;;;;5.32;4.18;;;9.40;99.90;;;;;;5031806;28;20754;-68
2021/10/13 06:19:05;;;;;;;5.90;4.28;;;9.40;99.90;;;;;;5032183;28;20229;-68
2021/10/13 06:21:32;;;;;;;7.75;5.05;;;9.50;99.90;;;;;;5032025;28;20240;-68
2021/10/13 06:23:59;;;;;;;6.03;4.05;;;9.50;99.90;;;;;;5032071;28;20683;-68
2021/10/13 06:26:26;;;;;;;5.60;5.00;;;9.60;99.90;;;;;;5031696;28;20691;-68
2021/10/13 06:28:54;;;;;;;5.05;4.55;;;9.60;99.90;;;;;;5032027;28;20229;-68
2021/10/13 06:31:23;;;;;;;4.15;3.78;;;9.60;99.90;;;;;;5031825;28;20260;-67
2021/10/13 06:33:52;;;;;;;5.82;4.35;;;9.70;99.90;;;;;;5032324;28;20229;-68
2021/10/13 06:36:21;;;;;;;4.55;4.15;;;9.70;99.90;;;;;;5033091;28;20229;-68
2021/10/13 06:38:48;;;;;;;5.45;4.82;;;9.70;99.90;;;;;;5035651;28;20233;-68
2021/10/13 06:41:15;;;;;;;7.50;6.22;;;9.70;99.90;;;;;;5035914;28;20236;-68
2021/10/13 06:43:43;;;;;;;8.77;5.90;;;9.70;99.90;;;;;;5024484;28;20236;-68
2021/10/13 06:46:10;;;;;;;9.50;7.32;;;9.70;99.90;;;;;;5035825;28;20221;-68
2021/10/13 06:48:37;;;;;;;5.68;4.82;;;9.70;99.90;;;;;;5035221;28;20225;-68
2021/10/13 06:51:05;;;;;;;6.40;5.70;;;9.70;99.90;;;;;;5035509;28;20230;-69
2021/10/13 06:53:32;;;;;;;5.82;5.22;;;9.80;99.90;;;;;;5035254;28;20236;-69
2021/10/13 06:56:00;;;;;;;6.75;5.35;;;9.80;99.90;;;;;;5035625;28;20229;-68
2021/10/13 06:58:27;;;;;;;5.70;5.13;;;9.80;99.90;;;;;;5034701;28;20234;-68
2021/10/13 07:00:54;;;;;;;5.22;4.75;;;9.80;99.90;;;;;;5024997;28;20226;-68
2021/10/13 07:03:21;;;;;;;5.82;4.97;;;9.90;99.90;;;;;;5015286;28;20575;-69
2021/10/13 07:05:48;;;;;;;7.75;6.10;;;9.90;99.90;;;;;;5015638;28;20226;-69
2021/10/13 07:08:16;;;;;;;5.32;4.80;;;9.90;99.90;;;;;;5015515;28;20230;-69
2021/10/13 07:10:43;;;;;;;9.25;6.10;;;9.90;99.90;;;;;;5014859;28;20661;-69
2021/10/13 07:13:10;;;;;;;6.80;6.10;;;10.00;99.90;;;;;;5015409;28;20544;-68
2021/10/13 07:15:37;;;;;;;7.30;5.90;;;10.00;99.90;;;;;;5015214;28;20266;-69
2021/10/13 07:18:04;;;;;;;6.72;5.75;;;9.90;99.90;;;;;;5015286;28;20226;-69
2021/10/13 07:20:31;;;;;;;9.55;5.80;;;10.00;99.90;;;;;;5014827;28;20222;-69
2021/10/13 07:22:58;;;;;;;8.77;7.25;;;10.00;99.90;;;;;;5015176;28;20222;-69
2021/10/13 07:25:28;;;;;;;9.95;7.15;;;10.00;99.90;;;;;;5014777;28;20589;-69
2021/10/13 07:27:57;;;;;;;9.40;6.53;;;10.00;99.90;;;;;;5015255;28;20222;-70
2021/10/13 07:30:24;;;;;;;7.25;6.45;;;10.00;99.90;;;;;;5014721;28;20236;-69
2021/10/13 07:32:52;;;;;;;7.68;5.68;;;10.00;99.90;;;;;;5015015;28;20241;-68
2021/10/13 07:35:20;;;;;;;8.73;7.65;;;10.00;99.90;;;;;;5033334;28;20229;-69
2021/10/13 07:37:47;;;;;;;11.48;7.68;;;10.00;99.90;;;;;;5034710;28;21289;-69
2021/10/13 07:40:14;;;;;;;10.93;8.00;;;10.10;99.90;;;;;;5034527;28;20221;-69
2021/10/13 07:42:43;;;;;;;9.07;7.30;;;10.20;99.90;;;;;;5031608;28;20699;-69
2021/10/13 07:45:10;;;;;;;5.55;4.30;;;10.20;99.90;;;;;;4996549;28;20700;-69
2021/10/13 07:47:37;;;;;;;6.32;5.57;;;10.30;99.90;;;;;;5004001;28;20310;-69
2021/10/13 07:50:06;;;;;;;7.20;6.00;;;10.30;99.90;;;;;;5014604;28;20241;-68
2021/10/13 07:52:33;;;;;;;8.30;6.40;;;10.40;99.90;;;;;;5014311;28;20218;-69
2021/10/13 07:55:00;;;;;;;7.55;6.35;;;10.40;99.90;;;;;;5014421;28;20232;-69
2021/10/13 07:57:27;;;;;;;10.25;6.75;;;10.40;99.90;;;;;;5014321;28;20232;-69
2021/10/13 07:59:55;;;;;;;6.00;5.15;;;10.40;99.90;;;;;;5014407;28;20226;-68
2021/10/13 08:02:22;;;;;;;5.90;5.40;;;10.50;99.90;;;;;;5014461;28;20230;-69
2021/10/13 08:04:49;;;;;;;6.97;5.38;;;10.50;99.90;;;;;;5014128;28;20974;-69
2021/10/13 08:07:17;;;;;;;9.40;6.35;;;10.60;99.90;;;;;;5014265;28;20225;-68
2021/10/13 08:09:44;;;;;;;8.23;5.35;;;10.60;99.90;;;;;;5013710;28;20611;-68
2021/10/13 08:12:11;;;;;;;8.20;5.13;;;10.60;99.90;;;;;;5014489;28;20238;-68
2021/10/13 08:14:38;;;;;;;6.50;5.82;;;10.50;99.90;;;;;;5013653;28;20222;-68
2021/10/13 08:17:07;;;;;;;6.00;5.40;;;10.60;99.90;;;;;;5014051;28;20225;-68
2021/10/13 08:19:34;;;;;;;6.93;6.05;;;10.60;99.90;;;;;;5013925;28;20261;-69
2021/10/13 08:22:01;;;;;;;6.32;5.68;;;10.60;99.90;;;;;;5014061;28;20237;-69
2021/10/13 08:24:28;;;;;;;6.22;5.55;;;10.70;99.90;;;;;;5013715;28;20232;-69
2021/10/13 08:26:55;;;;;;;7.72;5.85;;;10.70;99.90;;;;;;5014124;28;20233;-69
2021/10/13 08:29:22;;;;;;;7.43;6.03;;;10.70;99.90;;;;;;5013831;28;20230;-69
2021/10/13 08:31:49;;;;;;;6.35;5.80;;;10.80;99.90;;;;;;5013522;28;20236;-69
2021/10/13 08:34:17;;;;;;;5.82;5.05;;;10.80;99.90;;;;;;5004252;28;20563;-69
2021/10/13 08:36:44;;;;;;;8.63;6.68;;;10.80;99.90;;;;;;4993883;28;20224;-69
2021/10/13 08:39:12;;;;;;;6.78;6.07;;;10.80;99.90;;;;;;4994289;28;20234;-69
2021/10/13 08:41:38;;;;;;;7.90;6.10;;;10.80;99.90;;;;;;4994017;28;20231;-69
2021/10/13 08:44:06;;;;;;;10.15;7.03;;;10.90;99.90;;;;;;5013686;28;20234;-69
2021/10/13 08:46:33;;;;;;;8.98;7.88;;;11.00;99.90;;;;;;5013313;28;20222;-67
2021/10/13 08:49:00;;;;;;;7.93;5.82;;;11.00;99.90;;;;;;5013459;28;20238;-67
2021/10/13 08:51:33;;;;;;;7.78;6.85;;;11.00;99.90;;;;;;5013560;28;20222;-69
2021/10/13 08:54:00;;;;;;;11.18;8.13;;;11.00;99.90;;;;;;5013254;28;20224;-69
2021/10/13 08:56:27;;;;;;;10.40;7.40;;;11.10;99.90;;;;;;5013677;28;20218;-69
2021/10/13 08:58:54;;;;;;;5.78;5.28;;;11.10;99.90;;;;;;5012226;28;20239;-69
2021/10/13 09:01:21;;;;;;;7.35;5.53;;;11.20;99.90;;;;;;5013240;28;20226;-69
2021/10/13 09:03:56;;;;;;;4.88;4.47;;;11.30;99.90;;;;;;5013045;28;20236;-69
2021/10/13 09:06:25;;;;;;;5.07;4.60;;;11.40;99.90;;;;;;5013260;28;20678;-67
2021/10/13 09:09:02;;;;;;;5.38;4.20;;;11.50;99.90;;;;;;5012729;28;20243;-67
2021/10/13 09:11:40;;;;;;;11.48;6.15;;;11.50;99.90;;;;;;5013193;28;20572;-66
2021/10/13 09:14:09;;;;;;;5.68;3.72;;;11.70;99.90;;;;;;5013208;28;20220;-67
2021/10/13 09:16:51;;;;;;;6.22;5.05;;;11.70;99.90;;;;;;5013225;28;20225;-67
2021/10/13 09:19:19;;;;;;;4.60;3.83;;;11.80;99.90;;;;;;5013406;28;20255;-68
2021/10/13 09:21:47;;;;;;;5.13;4.68;;;11.90;99.90;;;;;;5012581;28;20228;-67
2021/10/13 09:24:16;;;;;;;8.07;6.53;;;12.00;99.90;;;;;;5013088;28;20568;-68
2021/10/13 09:26:43;;;;;;;7.38;4.55;;;12.00;99.90;;;;;;5012560;28;20710;-68
2021/10/13 09:29:10;;;;;;;5.78;4.38;;;12.00;99.90;;;;;;5013119;28;20225;-68
2021/10/13 09:31:37;;;;;;;4.60;4.20;;;12.10;99.90;;;;;;5012539;28;20224;-68
2021/10/13 09:34:06;;;;;;;4.60;4.18;;;12.10;99.90;;;;;;5012933;28;20264;-67
2021/10/13 09:36:34;;;;;;;4.57;3.95;;;12.10;99.90;;;;;;5012526;28;20668;-67
2021/10/13 09:39:06;;;;;;;5.28;3.83;;;12.20;99.90;;;;;;5012741;28;20232;-67
2021/10/13 09:42:02;;;;;;;7.22;4.55;;;12.30;99.90;;;;;;5012515;28;20232;-67
2021/10/13 09:44:30;;;;;;;5.72;3.50;;;12.30;99.90;;;;;;5005528;28;20220;-68
2021/10/13 09:46:59;;;;;;;4.32;3.90;;;12.30;99.90;;;;;;5012502;28;20240;-68
2021/10/13 09:49:28;;;;;;;5.05;3.50;;;12.40;99.90;;;;;;5012384;28;20304;-68
2021/10/13 09:52:02;;;;;;;6.93;6.28;;;12.50;99.90;;;;;;5012920;28;20228;-68
2021/10/13 09:54:29;;;;;;;5.95;5.43;;;12.50;99.90;;;;;;5012138;28;20228;-68
2021/10/13 09:56:58;;;;;;;6.07;4.93;;;12.60;99.70;;;;;;5012722;28;20286;-68
2021/10/13 09:59:25;;;;;;;7.65;4.70;;;12.60;99.70;;;;;;5012479;28;20550;-68
2021/10/13 10:01:55;;;;;;;3.95;3.58;;;12.70;99.70;;;;;;5012408;28;21011;-68
2021/10/13 10:04:24;;;;;;;5.13;3.40;;;12.70;99.60;;;;;;5012867;28;20346;-68
2021/10/13 10:06:54;;;;;;;7.32;4.55;;;12.70;99.40;;;;;;5012168;28;20229;-67
2021/10/13 10:09:22;;;;;;;4.65;4.15;;;12.80;99.40;;;;;;5012378;28;20228;-68
2021/10/13 10:11:51;;;;;;;4.05;3.42;;;12.80;99.40;;;;;;5003617;28;20226;-68
2021/10/13 10:14:47;;;;;;;4.18;3.88;;;12.90;99.30;;;;;;4996843;28;20229;-68
2021/10/13 10:17:38;;;;;;;6.32;4.75;;;12.90;99.10;;;;;;4973430;28;20229;-67
2021/10/13 10:20:06;;;;;;;5.95;4.60;;;12.90;99.30;;;;;;4996967;28;20234;-68
2021/10/13 10:22:45;;;;;;;4.50;3.75;;;12.90;99.30;;;;;;4996596;28;20557;-68
2021/10/13 10:25:12;;;;;;;5.18;4.32;;;13.00;99.30;;;;;;4996327;28;20225;-68
2021/10/13 10:27:39;;;;;;;8.50;7.00;;;13.00;99.20;;;;;;4996578;28;20255;-68
2021/10/13 10:30:20;;;;;;;6.20;5.60;;;13.10;99.10;;;;;;4996786;28;20230;-67
2021/10/13 10:33:20;;;;;;;6.55;4.63;;;13.10;99.00;;;;;;4996547;28;20219;-68
2021/10/13 10:35:47;;;;;;;6.10;4.80;;;13.20;99.10;;;;;;5016140;28;20227;-68
2021/10/13 10:38:18;;;;;;;9.30;4.95;;;13.20;99.00;;;;;;5016122;28;20226;-67
2021/10/13 10:40:45;;;;;;;4.63;4.22;;;13.20;99.00;;;;;;5015464;28;20243;-68
2021/10/13 10:43:24;;;;;;;4.63;4.18;;;13.20;99.00;;;;;;5028880;28;20225;-68
2021/10/13 10:45:55;;;;;;;5.32;4.82;;;13.30;99.00;;;;;;5035270;28;20225;-67
2021/10/13 10:48:23;;;;;;;4.75;4.15;;;13.30;98.90;;;;;;5035578;28;20256;-68
2021/10/13 10:51:08;;;;;;;5.25;4.07;;;13.40;98.80;;;;;;5035059;28;20228;-68
2021/10/13 10:53:40;;;;;;;4.55;4.00;;;13.40;98.80;;;;;;5034925;28;20232;-68
2021/10/13 10:56:27;;;;;;;4.05;3.50;;;13.40;98.90;;;;;;5035685;28;20232;-68
2021/10/13 10:59:10;;;;;;;4.72;4.22;;;13.40;99.00;;;;;;5034947;28;20251;-67
2021/10/13 11:01:43;;;;;;;4.70;3.72;;;13.40;98.90;;;;;;5024471;28;20218;-68
2021/10/13 11:04:12;;;;;;;4.35;3.75;;;13.50;98.90;;;;;;5004196;28;20236;-68
2021/10/13 11:06:40;;;;;;;4.55;4.03;;;13.50;98.90;;;;;;5002154;28;20226;-68
2021/10/13 11:09:09;;;;;;;5.15;3.63;;;13.50;98.80;;;;;;5005793;28;20233;-68
2021/10/13 11:11:41;;;;;;;5.33;4.10;;;13.60;98.80;;;;;;5000938;28;20226;-68
2021/10/13 11:14:14;;;;;;;4.70;3.20;;;13.50;98.60;;;;;;5004648;28;20471;-67
2021/10/13 11:16:49;;;;;;;6.88;4.07;;;13.50;98.60;;;;;;5005732;28;20218;-68
2021/10/13 11:19:19;;;;;;;4.50;4.10;;;13.60;98.60;;;;;;5010165;28;20221;-68
2021/10/13 11:21:48;;;;;;;3.80;3.40;;;13.60;98.70;;;;;;5013118;28;20218;-68
2021/10/13 11:24:18;;;;;;;5.00;4.32;;;13.60;98.60;;;;;;5003908;28;21530;-68
2021/10/13 11:26:45;;;;;;;7.40;4.97;;;13.70;98.50;;;;;;5005779;28;20288;-67
2021/10/13 11:29:17;;;;;;;4.85;3.90;;;13.70;98.50;;;;;;4999786;28;20471;-67
2021/10/13 11:31:45;;;;;;;6.95;3.70;;;13.80;98.30;;;;;;5000140;28;20233;-67
2021/10/13 11:34:16;;;;;;;4.20;3.53;;;13.80;98.10;;;;;;5003778;28;20230;-67
2021/10/13 11:36:51;;;;;;;3.60;3.30;;;13.80;98.10;;;;;;4998633;28;20227;-69
2021/10/13 11:39:23;;;;;;;5.07;3.58;;;13.90;98.10;;;;;;4998213;28;20233;-69
2021/10/13 11:41:50;;;;;;;4.10;3.70;;;14.00;98.10;;;;;;5002908;28;20211;-66
2021/10/13 11:44:20;;;;;;;4.63;3.13;;;14.00;98.10;;;;;;5002226;28;20552;-69
2021/10/13 11:47:05;;;;;;;3.70;3.40;;;14.10;98.00;;;;;;5008832;28;20233;-69
2021/10/13 11:49:33;;;;;;;3.63;3.10;;;14.20;97.60;;;;;;5011053;28;20218;-66
2021/10/13 11:52:15;;;;;;;5.33;4.10;;;14.20;97.60;;;;;;4997457;28;20473;-69
2021/10/13 11:54:43;;;;;;;3.03;2.72;;;14.30;97.10;;;;;;5009392;28;21001;-68
2021/10/13 11:57:10;;;;;;;4.20;2.77;;;14.30;97.10;;;;;;5007328;28;20218;-69
2021/10/13 11:59:38;;;;;;;3.17;2.88;;;14.30;97.20;;;;;;5008998;28;20500;-69
2021/10/13 12:02:17;;;;;;;3.55;3.08;;;14.30;97.20;;;;;;5012664;28;20238;-69
2021/10/13 12:04:53;;;;;;;4.60;3.03;;;14.40;97.30;;;;;;5008895;28;20229;-69
2021/10/13 12:07:22;;;;;;;3.63;3.33;;;14.40;97.30;;;;;;5017115;28;20795;-68
2021/10/13 12:09:57;;;;;;;3.20;2.90;;;14.50;97.20;;;;;;5023710;28;20233;-67
2021/10/13 12:12:25;;;;;;;8.10;3.20;;;14.50;97.10;;;;;;5026283;28;20472;-69
2021/10/13 12:14:51;;;;;;;3.07;2.50;;;14.50;96.80;;;;;;5020558;28;20806;-68
2021/10/13 12:17:31;;;;;;;4.63;3.15;;;14.50;96.70;;;;;;5027958;28;20472;-67
2021/10/13 12:20:00;;;;;;;4.57;4.18;;;14.50;96.80;;;;;;5018616;28;20234;-67
2021/10/13 12:22:27;;;;;;;4.00;3.70;;;14.50;96.70;;;;;;5014295;28;20685;-68
2021/10/13 12:24:55;;;;;;;6.70;3.90;;;14.50;96.50;;;;;;5009598;28;20222;-67
2021/10/13 12:27:29;;;;;;;5.03;2.97;;;14.50;96.50;;;;;;5011599;28;20226;-67
2021/10/13 12:29:58;;;;;;;4.47;3.30;;;14.50;96.60;;;;;;5006530;28;20477;-67
2021/10/13 12:32:28;;;;;;;3.53;3.10;;;14.40;96.50;;;;;;5010730;28;20462;-67
2021/10/13 12:35:11;;;;;;;3.80;3.07;;;14.40;96.60;;;;;;5007902;28;20469;-67
2021/10/13 12:37:47;;;;;;;4.00;3.27;;;14.50;96.60;;;;;;5011802;28;21097;-68
2021/10/13 12:40:14;;;;;;;3.97;2.80;;;14.50;96.70;;;;;;5006256;28;20493;-67
2021/10/13 12:42:42;;;;;;;3.83;2.70;;;14.50;96.30;;;;;;5009310;28;20480;-68
2021/10/13 12:45:09;;;;;;;2.93;2.60;;;14.60;96.00;;;;;;5007547;28;20476;-67
2021/10/13 12:47:38;;;;;;;3.30;2.53;;;14.60;95.90;;;;;;5011717;28;20474;-67
2021/10/13 12:50:13;;;;;;;3.73;3.20;;;14.60;96.00;;;;;;5004902;28;20481;-67
2021/10/13 12:52:41;;;;;;;4.57;2.97;;;14.60;96.10;;;;;;5006020;28;20986;-68
2021/10/13 12:55:08;;;;;;;4.80;3.20;;;14.60;95.90;;;;;;5005517;28;20974;-68
2021/10/13 12:57:35;;;;;;;4.63;3.10;;;14.60;95.90;;;;;;5003274;28;20944;-68
2021/10/13 13:00:05;;;;;;;7.83;3.60;;;14.60;95.70;;;;;;5001800;28;20481;-68
2021/10/13 13:02:32;;;;;;;4.13;3.40;;;14.50;95.90;;;;;;5011430;28;20472;-67
2021/10/13 13:05:00;;;;;;;4.18;3.88;;;14.50;96.00;;;;;;5010859;28;20465;-67